sensor_id;sensor_type;location;lat;lon;timestamp;P1;durP1;ratioP1;P2;durP2;ratioP2
19788;SDS011;10054;59.332;18.244;2022-11-23T00:01:34;2.00;;;1.90;;
19788;SDS011;10054;59.332;18.244;2022-11-23T00:04:05;2.37;;;2.00;;
19788;SDS011;10054;59.332;18.244;2022-11-23T00:06:36;3.33;;;2.10;;
19788;SDS011;10054;59.332;18.244;2022-11-23T00:09:05;2.30;;;1.90;;
19788;SDS011;10054;59.332;18.244;2022-11-23T00:11:34;2.10;;;1.87;;
19788;SDS011;10054;59.332;18.244;2022-11-23T00:14:03;2.27;;;2.07;;
19788;SDS011;10054;59.332;18.244;2022-11-23T00:16:31;3.57;;;2.00;;
19788;SDS011;10054;59.332;18.244;2022-11-23T00:19:00;2.47;;;1.93;;
19788;SDS011;10054;59.332;18.244;2022-11-23T00:21:30;2.23;;;1.60;;
19788;SDS011;10054;59.332;18.244;2022-11-23T00:23:59;1.93;;;1.83;;
19788;SDS011;10054;59.332;18.244;2022-11-23T00:26:28;2.60;;;2.00;;
19788;SDS011;10054;59.332;18.244;2022-11-23T00:28:56;2.17;;;1.80;;
19788;SDS011;10054;59.332;18.244;2022-11-23T00:31:25;2.00;;;1.80;;
19788;SDS011;10054;59.332;18.244;2022-11-23T00:33:54;1.70;;;1.50;;
19788;SDS011;10054;59.332;18.244;2022-11-23T00:36:25;2.43;;;1.70;;
19788;SDS011;10054;59.332;18.244;2022-11-23T00:38:54;2.10;;;1.73;;
19788;SDS011;10054;59.332;18.244;2022-11-23T00:41:24;1.70;;;1.60;;
19788;SDS011;10054;59.332;18.244;2022-11-23T00:43:54;2.10;;;1.80;;
19788;SDS011;10054;59.332;18.244;2022-11-23T00:46:23;1.80;;;1.70;;
19788;SDS011;10054;59.332;18.244;2022-11-23T00:48:54;99.63;;;5.00;;
19788;SDS011;10054;59.332;18.244;2022-11-23T00:51:26;1.63;;;1.53;;
19788;SDS011;10054;59.332;18.244;2022-11-23T00:53:56;1.67;;;1.57;;
19788;SDS011;10054;59.332;18.244;2022-11-23T00:56:26;2.17;;;1.70;;
19788;SDS011;10054;59.332;18.244;2022-11-23T00:58:56;1.80;;;1.70;;
19788;SDS011;10054;59.332;18.244;2022-11-23T01:01:32;1.70;;;1.60;;
19788;SDS011;10054;59.332;18.244;2022-11-23T01:04:07;1.77;;;1.43;;
19788;SDS011;10054;59.332;18.244;2022-11-23T01:06:37;1.60;;;1.50;;
19788;SDS011;10054;59.332;18.244;2022-11-23T01:09:07;2.77;;;1.60;;
19788;SDS011;10054;59.332;18.244;2022-11-23T01:11:41;1.83;;;1.63;;
19788;SDS011;10054;59.332;18.244;2022-11-23T01:14:11;1.97;;;1.60;;
19788;SDS011;10054;59.332;18.244;2022-11-23T01:16:40;1.60;;;1.50;;
19788;SDS011;10054;59.332;18.244;2022-11-23T01:19:13;1.40;;;1.30;;
19788;SDS011;10054;59.332;18.244;2022-11-23T01:21:45;1.50;;;1.40;;
19788;SDS011;10054;59.332;18.244;2022-11-23T01:24:14;4.30;;;1.50;;
19788;SDS011;10054;59.332;18.244;2022-11-23T01:26:45;2.13;;;1.63;;
19788;SDS011;10054;59.332;18.244;2022-11-23T01:29:15;2.07;;;1.60;;
19788;SDS011;10054;59.332;18.244;2022-11-23T01:31:43;1.67;;;1.50;;
19788;SDS011;10054;59.332;18.244;2022-11-23T01:34:14;1.73;;;1.50;;
19788;SDS011;10054;59.332;18.244;2022-11-23T01:36:44;1.20;;;1.10;;
19788;SDS011;10054;59.332;18.244;2022-11-23T01:39:12;1.30;;;1.20;;
19788;SDS011;10054;59.332;18.244;2022-11-23T01:41:42;1.30;;;1.13;;
19788;SDS011;10054;59.332;18.244;2022-11-23T01:44:28;1.47;;;1.20;;
19788;SDS011;10054;59.332;18.244;2022-11-23T01:46:58;1.53;;;1.30;;
19788;SDS011;10054;59.332;18.244;2022-11-23T01:49:30;1.27;;;1.17;;
19788;SDS011;10054;59.332;18.244;2022-11-23T01:52:09;1.07;;;1.00;;
19788;SDS011;10054;59.332;18.244;2022-11-23T01:54:37;1.40;;;1.00;;
19788;SDS011;10054;59.332;18.244;2022-11-23T01:57:07;1.40;;;1.27;;
19788;SDS011;10054;59.332;18.244;2022-11-23T01:59:38;1.73;;;1.20;;
19788;SDS011;10054;59.332;18.244;2022-11-23T02:02:06;2.30;;;1.33;;
19788;SDS011;10054;59.332;18.244;2022-11-23T02:04:41;1.30;;;1.20;;
19788;SDS011;10054;59.332;18.244;2022-11-23T02:07:13;1.50;;;1.00;;
19788;SDS011;10054;59.332;18.244;2022-11-23T02:09:43;1.40;;;1.10;;
19788;SDS011;10054;59.332;18.244;2022-11-23T02:12:13;1.83;;;1.10;;
19788;SDS011;10054;59.332;18.244;2022-11-23T02:14:43;0.80;;;0.80;;
19788;SDS011;10054;59.332;18.244;2022-11-23T02:17:12;1.00;;;0.83;;
19788;SDS011;10054;59.332;18.244;2022-11-23T02:25:00;2.23;;;0.90;;
19788;SDS011;10054;59.332;18.244;2022-11-23T02:27:31;0.90;;;0.90;;
19788;SDS011;10054;59.332;18.244;2022-11-23T02:30:00;1.17;;;1.10;;
19788;SDS011;10054;59.332;18.244;2022-11-23T02:32:30;1.33;;;0.97;;
19788;SDS011;10054;59.332;18.244;2022-11-23T02:35:00;1.63;;;1.10;;
19788;SDS011;10054;59.332;18.244;2022-11-23T02:37:29;1.00;;;1.00;;
19788;SDS011;10054;59.332;18.244;2022-11-23T02:39:58;1.00;;;0.90;;
19788;SDS011;10054;59.332;18.244;2022-11-23T02:42:31;1.43;;;1.07;;
19788;SDS011;10054;59.332;18.244;2022-11-23T02:47:47;1.10;;;1.00;;
19788;SDS011;10054;59.332;18.244;2022-11-23T02:50:15;1.10;;;1.00;;
19788;SDS011;10054;59.332;18.244;2022-11-23T02:52:44;2.00;;;1.33;;
19788;SDS011;10054;59.332;18.244;2022-11-23T02:55:14;1.13;;;1.03;;
19788;SDS011;10054;59.332;18.244;2022-11-23T02:57:43;0.80;;;0.80;;
19788;SDS011;10054;59.332;18.244;2022-11-23T03:00:12;1.90;;;1.00;;
19788;SDS011;10054;59.332;18.244;2022-11-23T03:02:42;1.13;;;1.00;;
19788;SDS011;10054;59.332;18.244;2022-11-23T03:05:10;0.80;;;0.80;;
19788;SDS011;10054;59.332;18.244;2022-11-23T03:07:40;1.30;;;0.80;;
19788;SDS011;10054;59.332;18.244;2022-11-23T03:10:10;1.20;;;1.00;;
19788;SDS011;10054;59.332;18.244;2022-11-23T03:12:39;1.17;;;1.07;;
19788;SDS011;10054;59.332;18.244;2022-11-23T03:15:10;1.50;;;1.17;;
19788;SDS011;10054;59.332;18.244;2022-11-23T03:17:39;1.60;;;1.00;;
19788;SDS011;10054;59.332;18.244;2022-11-23T03:20:10;1.20;;;1.10;;
19788;SDS011;10054;59.332;18.244;2022-11-23T03:22:40;1.27;;;1.00;;
19788;SDS011;10054;59.332;18.244;2022-11-23T03:25:09;1.07;;;1.03;;
19788;SDS011;10054;59.332;18.244;2022-11-23T03:27:38;1.57;;;1.00;;
19788;SDS011;10054;59.332;18.244;2022-11-23T03:30:07;1.50;;;1.10;;
19788;SDS011;10054;59.332;18.244;2022-11-23T03:32:36;1.10;;;1.00;;
19788;SDS011;10054;59.332;18.244;2022-11-23T03:35:06;1.30;;;1.20;;
19788;SDS011;10054;59.332;18.244;2022-11-23T03:37:37;2.33;;;1.10;;
19788;SDS011;10054;59.332;18.244;2022-11-23T03:40:06;1.07;;;0.97;;
19788;SDS011;10054;59.332;18.244;2022-11-23T03:42:52;1.53;;;0.90;;
19788;SDS011;10054;59.332;18.244;2022-11-23T03:45:21;1.37;;;1.10;;
19788;SDS011;10054;59.332;18.244;2022-11-23T03:47:50;1.30;;;1.00;;
19788;SDS011;10054;59.332;18.244;2022-11-23T03:50:18;2.53;;;1.10;;
19788;SDS011;10054;59.332;18.244;2022-11-23T03:52:47;0.97;;;0.90;;
19788;SDS011;10054;59.332;18.244;2022-11-23T03:55:16;1.23;;;1.00;;
19788;SDS011;10054;59.332;18.244;2022-11-23T03:57:46;1.77;;;1.00;;
19788;SDS011;10054;59.332;18.244;2022-11-23T04:00:15;1.10;;;1.10;;
19788;SDS011;10054;59.332;18.244;2022-11-23T04:02:44;0.97;;;0.83;;
19788;SDS011;10054;59.332;18.244;2022-11-23T04:05:15;1.10;;;1.00;;
19788;SDS011;10054;59.332;18.244;2022-11-23T04:07:51;1.27;;;1.00;;
19788;SDS011;10054;59.332;18.244;2022-11-23T04:10:20;1.07;;;0.97;;
19788;SDS011;10054;59.332;18.244;2022-11-23T04:12:54;0.80;;;0.80;;
19788;SDS011;10054;59.332;18.244;2022-11-23T04:15:22;0.90;;;0.90;;
19788;SDS011;10054;59.332;18.244;2022-11-23T04:17:52;1.00;;;1.00;;
19788;SDS011;10054;59.332;18.244;2022-11-23T04:20:22;0.80;;;0.80;;
19788;SDS011;10054;59.332;18.244;2022-11-23T04:22:51;1.37;;;1.20;;
19788;SDS011;10054;59.332;18.244;2022-11-23T04:25:20;1.07;;;1.00;;
19788;SDS011;10054;59.332;18.244;2022-11-23T04:27:49;1.20;;;1.10;;
19788;SDS011;10054;59.332;18.244;2022-11-23T04:30:18;1.30;;;1.17;;
19788;SDS011;10054;59.332;18.244;2022-11-23T04:32:47;1.20;;;1.10;;
19788;SDS011;10054;59.332;18.244;2022-11-23T04:35:15;1.10;;;1.00;;
19788;SDS011;10054;59.332;18.244;2022-11-23T04:37:46;1.37;;;1.27;;
19788;SDS011;10054;59.332;18.244;2022-11-23T04:40:16;3.17;;;1.17;;
19788;SDS011;10054;59.332;18.244;2022-11-23T04:42:58;1.27;;;1.17;;
19788;SDS011;10054;59.332;18.244;2022-11-23T04:45:27;2.13;;;1.10;;
19788;SDS011;10054;59.332;18.244;2022-11-23T04:47:57;1.20;;;1.10;;
19788;SDS011;10054;59.332;18.244;2022-11-23T04:50:27;1.10;;;1.00;;
19788;SDS011;10054;59.332;18.244;2022-11-23T04:52:55;2.20;;;1.10;;
19788;SDS011;10054;59.332;18.244;2022-11-23T04:55:26;2.23;;;1.20;;
19788;SDS011;10054;59.332;18.244;2022-11-23T04:57:56;1.33;;;1.10;;
19788;SDS011;10054;59.332;18.244;2022-11-23T05:00:26;1.40;;;1.13;;
19788;SDS011;10054;59.332;18.244;2022-11-23T05:02:57;1.60;;;1.27;;
19788;SDS011;10054;59.332;18.244;2022-11-23T05:05:28;2.07;;;1.40;;
19788;SDS011;10054;59.332;18.244;2022-11-23T05:07:57;1.10;;;1.00;;
19788;SDS011;10054;59.332;18.244;2022-11-23T05:10:27;1.30;;;1.20;;
19788;SDS011;10054;59.332;18.244;2022-11-23T05:12:57;1.33;;;1.10;;
19788;SDS011;10054;59.332;18.244;2022-11-23T05:15:27;1.53;;;1.20;;
19788;SDS011;10054;59.332;18.244;2022-11-23T05:18:01;1.43;;;1.10;;
19788;SDS011;10054;59.332;18.244;2022-11-23T05:20:34;1.40;;;1.10;;
19788;SDS011;10054;59.332;18.244;2022-11-23T05:23:03;0.97;;;0.93;;
19788;SDS011;10054;59.332;18.244;2022-11-23T05:25:32;1.20;;;1.10;;
19788;SDS011;10054;59.332;18.244;2022-11-23T05:28:03;1.10;;;1.00;;
19788;SDS011;10054;59.332;18.244;2022-11-23T05:30:32;2.20;;;1.57;;
19788;SDS011;10054;59.332;18.244;2022-11-23T05:33:01;1.33;;;1.23;;
19788;SDS011;10054;59.332;18.244;2022-11-23T05:35:30;1.27;;;1.17;;
19788;SDS011;10054;59.332;18.244;2022-11-23T05:38:01;1.77;;;1.27;;
19788;SDS011;10054;59.332;18.244;2022-11-23T05:40:32;2.17;;;1.40;;
19788;SDS011;10054;59.332;18.244;2022-11-23T05:43:03;4.23;;;1.30;;
19788;SDS011;10054;59.332;18.244;2022-11-23T05:45:35;2.47;;;1.40;;
19788;SDS011;10054;59.332;18.244;2022-11-23T05:48:08;1.63;;;1.40;;
19788;SDS011;10054;59.332;18.244;2022-11-23T05:50:41;3.03;;;1.40;;
19788;SDS011;10054;59.332;18.244;2022-11-23T05:53:11;1.70;;;1.60;;
19788;SDS011;10054;59.332;18.244;2022-11-23T05:55:41;1.70;;;1.50;;
19788;SDS011;10054;59.332;18.244;2022-11-23T05:58:10;2.00;;;1.43;;
19788;SDS011;10054;59.332;18.244;2022-11-23T06:00:39;2.53;;;1.60;;
19788;SDS011;10054;59.332;18.244;2022-11-23T06:03:08;1.80;;;1.60;;
19788;SDS011;10054;59.332;18.244;2022-11-23T06:05:37;1.50;;;1.40;;
19788;SDS011;10054;59.332;18.244;2022-11-23T06:08:05;2.00;;;1.80;;
19788;SDS011;10054;59.332;18.244;2022-11-23T06:10:34;1.80;;;1.70;;
19788;SDS011;10054;59.332;18.244;2022-11-23T06:13:03;2.10;;;1.97;;
19788;SDS011;10054;59.332;18.244;2022-11-23T06:15:31;2.17;;;1.60;;
19788;SDS011;10054;59.332;18.244;2022-11-23T06:18:01;2.07;;;1.70;;
19788;SDS011;10054;59.332;18.244;2022-11-23T06:20:35;2.07;;;1.80;;
19788;SDS011;10054;59.332;18.244;2022-11-23T06:23:03;2.80;;;1.80;;
19788;SDS011;10054;59.332;18.244;2022-11-23T06:25:33;2.70;;;2.03;;
19788;SDS011;10054;59.332;18.244;2022-11-23T06:28:05;4.23;;;2.20;;
19788;SDS011;10054;59.332;18.244;2022-11-23T06:30:35;2.10;;;1.90;;
19788;SDS011;10054;59.332;18.244;2022-11-23T06:33:05;2.93;;;2.10;;
19788;SDS011;10054;59.332;18.244;2022-11-23T06:35:36;2.37;;;2.00;;
19788;SDS011;10054;59.332;18.244;2022-11-23T06:38:04;3.63;;;1.87;;
19788;SDS011;10054;59.332;18.244;2022-11-23T06:40:33;2.30;;;2.10;;
19788;SDS011;10054;59.332;18.244;2022-11-23T06:43:04;2.20;;;2.00;;
19788;SDS011;10054;59.332;18.244;2022-11-23T06:45:36;4.00;;;2.30;;
19788;SDS011;10054;59.332;18.244;2022-11-23T06:48:07;3.17;;;1.93;;
19788;SDS011;10054;59.332;18.244;2022-11-23T06:50:37;2.53;;;1.80;;
19788;SDS011;10054;59.332;18.244;2022-11-23T06:53:06;2.37;;;2.17;;
19788;SDS011;10054;59.332;18.244;2022-11-23T06:55:41;2.70;;;2.50;;
19788;SDS011;10054;59.332;18.244;2022-11-23T06:58:11;2.63;;;2.40;;
19788;SDS011;10054;59.332;18.244;2022-11-23T07:00:39;2.47;;;2.27;;
19788;SDS011;10054;59.332;18.244;2022-11-23T07:03:42;2.43;;;2.23;;
19788;SDS011;10054;59.332;18.244;2022-11-23T07:05:50;3.60;;;2.30;;
19788;SDS011;10054;59.332;18.244;2022-11-23T07:08:20;2.43;;;2.17;;
19788;SDS011;10054;59.332;18.244;2022-11-23T07:10:49;4.87;;;2.80;;
19788;SDS011;10054;59.332;18.244;2022-11-23T07:13:18;3.70;;;2.57;;
19788;SDS011;10054;59.332;18.244;2022-11-23T07:15:48;2.50;;;2.30;;
19788;SDS011;10054;59.332;18.244;2022-11-23T07:18:17;4.63;;;2.60;;
19788;SDS011;10054;59.332;18.244;2022-11-23T07:20:47;2.77;;;2.40;;
19788;SDS011;10054;59.332;18.244;2022-11-23T07:23:16;4.20;;;2.60;;
19788;SDS011;10054;59.332;18.244;2022-11-23T07:25:45;2.53;;;2.30;;
19788;SDS011;10054;59.332;18.244;2022-11-23T07:28:15;5.07;;;2.33;;
19788;SDS011;10054;59.332;18.244;2022-11-23T07:30:44;2.47;;;2.10;;
19788;SDS011;10054;59.332;18.244;2022-11-23T07:33:14;3.37;;;2.30;;
19788;SDS011;10054;59.332;18.244;2022-11-23T07:35:44;4.97;;;2.20;;
19788;SDS011;10054;59.332;18.244;2022-11-23T07:38:13;3.30;;;2.40;;
19788;SDS011;10054;59.332;18.244;2022-11-23T07:40:42;3.40;;;2.40;;
19788;SDS011;10054;59.332;18.244;2022-11-23T07:43:12;4.33;;;2.50;;
19788;SDS011;10054;59.332;18.244;2022-11-23T07:45:42;2.83;;;2.53;;
19788;SDS011;10054;59.332;18.244;2022-11-23T07:48:13;2.97;;;2.67;;
19788;SDS011;10054;59.332;18.244;2022-11-23T07:50:42;3.70;;;2.40;;
19788;SDS011;10054;59.332;18.244;2022-11-23T07:53:10;5.20;;;2.27;;
19788;SDS011;10054;59.332;18.244;2022-11-23T07:55:40;3.67;;;2.40;;
19788;SDS011;10054;59.332;18.244;2022-11-23T07:58:09;2.67;;;2.00;;
19788;SDS011;10054;59.332;18.244;2022-11-23T08:00:37;3.43;;;2.13;;
19788;SDS011;10054;59.332;18.244;2022-11-23T08:03:07;2.27;;;2.00;;
19788;SDS011;10054;59.332;18.244;2022-11-23T08:05:37;1.97;;;1.80;;
19788;SDS011;10054;59.332;18.244;2022-11-23T08:08:06;2.23;;;2.03;;
19788;SDS011;10054;59.332;18.244;2022-11-23T08:10:35;2.67;;;1.93;;
19788;SDS011;10054;59.332;18.244;2022-11-23T08:13:04;2.40;;;2.20;;
19788;SDS011;10054;59.332;18.244;2022-11-23T08:15:33;3.57;;;2.33;;
19788;SDS011;10054;59.332;18.244;2022-11-23T08:18:02;3.40;;;2.50;;
19788;SDS011;10054;59.332;18.244;2022-11-23T08:20:31;2.73;;;2.20;;
19788;SDS011;10054;59.332;18.244;2022-11-23T08:23:00;2.63;;;2.27;;
19788;SDS011;10054;59.332;18.244;2022-11-23T08:25:29;2.60;;;2.40;;
19788;SDS011;10054;59.332;18.244;2022-11-23T08:27:58;2.80;;;2.60;;
19788;SDS011;10054;59.332;18.244;2022-11-23T08:30:29;2.70;;;2.50;;
19788;SDS011;10054;59.332;18.244;2022-11-23T08:32:58;6.00;;;2.40;;
19788;SDS011;10054;59.332;18.244;2022-11-23T08:35:35;2.67;;;2.47;;
19788;SDS011;10054;59.332;18.244;2022-11-23T08:38:05;2.60;;;2.10;;
19788;SDS011;10054;59.332;18.244;2022-11-23T08:40:35;2.50;;;2.20;;
19788;SDS011;10054;59.332;18.244;2022-11-23T08:43:05;5.90;;;2.27;;
19788;SDS011;10054;59.332;18.244;2022-11-23T08:45:33;2.60;;;2.30;;
19788;SDS011;10054;59.332;18.244;2022-11-23T08:48:02;4.03;;;2.40;;
19788;SDS011;10054;59.332;18.244;2022-11-23T08:50:32;4.03;;;2.50;;
19788;SDS011;10054;59.332;18.244;2022-11-23T08:53:01;5.07;;;2.60;;
19788;SDS011;10054;59.332;18.244;2022-11-23T08:55:29;2.37;;;2.10;;
19788;SDS011;10054;59.332;18.244;2022-11-23T08:57:58;3.13;;;2.50;;
19788;SDS011;10054;59.332;18.244;2022-11-23T09:00:26;4.50;;;2.60;;
19788;SDS011;10054;59.332;18.244;2022-11-23T09:02:55;2.77;;;2.40;;
19788;SDS011;10054;59.332;18.244;2022-11-23T09:05:25;2.97;;;2.60;;
19788;SDS011;10054;59.332;18.244;2022-11-23T09:07:54;5.17;;;2.60;;
19788;SDS011;10054;59.332;18.244;2022-11-23T09:10:24;2.73;;;2.40;;
19788;SDS011;10054;59.332;18.244;2022-11-23T09:12:53;3.33;;;2.50;;
19788;SDS011;10054;59.332;18.244;2022-11-23T09:15:22;3.30;;;2.30;;
19788;SDS011;10054;59.332;18.244;2022-11-23T09:17:51;3.17;;;2.20;;
19788;SDS011;10054;59.332;18.244;2022-11-23T09:20:19;3.30;;;2.33;;
19788;SDS011;10054;59.332;18.244;2022-11-23T09:22:51;3.17;;;2.50;;
19788;SDS011;10054;59.332;18.244;2022-11-23T09:25:23;3.27;;;2.30;;
19788;SDS011;10054;59.332;18.244;2022-11-23T09:27:58;2.70;;;2.20;;
19788;SDS011;10054;59.332;18.244;2022-11-23T09:30:27;2.50;;;2.30;;
19788;SDS011;10054;59.332;18.244;2022-11-23T09:32:55;2.40;;;2.20;;
19788;SDS011;10054;59.332;18.244;2022-11-23T09:35:24;2.37;;;1.93;;
19788;SDS011;10054;59.332;18.244;2022-11-23T09:37:56;2.43;;;2.23;;
19788;SDS011;10054;59.332;18.244;2022-11-23T09:40:31;2.30;;;2.10;;
19788;SDS011;10054;59.332;18.244;2022-11-23T09:43:00;2.27;;;2.07;;
19788;SDS011;10054;59.332;18.244;2022-11-23T09:50:50;1.70;;;1.60;;
19788;SDS011;10054;59.332;18.244;2022-11-23T09:53:25;2.30;;;1.87;;
19788;SDS011;10054;59.332;18.244;2022-11-23T09:55:55;2.70;;;2.10;;
19788;SDS011;10054;59.332;18.244;2022-11-23T09:58:26;2.43;;;2.10;;
19788;SDS011;10054;59.332;18.244;2022-11-23T10:01:00;2.23;;;2.03;;
19788;SDS011;10054;59.332;18.244;2022-11-23T10:03:38;2.23;;;2.03;;
19788;SDS011;10054;59.332;18.244;2022-11-23T10:08:51;2.80;;;2.13;;
19788;SDS011;10054;59.332;18.244;2022-11-23T10:11:25;2.13;;;2.03;;
19788;SDS011;10054;59.332;18.244;2022-11-23T10:16:32;2.47;;;2.27;;
19788;SDS011;10054;59.332;18.244;2022-11-23T10:19:16;2.87;;;2.13;;
19788;SDS011;10054;59.332;18.244;2022-11-23T10:24:43;2.77;;;2.17;;
19788;SDS011;10054;59.332;18.244;2022-11-23T10:27:17;2.50;;;2.27;;
19788;SDS011;10054;59.332;18.244;2022-11-23T10:29:47;2.80;;;2.40;;
19788;SDS011;10054;59.332;18.244;2022-11-23T10:37:42;2.37;;;2.17;;
19788;SDS011;10054;59.332;18.244;2022-11-23T10:40:32;3.10;;;2.20;;
19788;SDS011;10054;59.332;18.244;2022-11-23T10:42:55;2.83;;;2.53;;
19788;SDS011;10054;59.332;18.244;2022-11-23T10:45:29;3.13;;;2.40;;
19788;SDS011;10054;59.332;18.244;2022-11-23T10:47:58;3.50;;;2.20;;
19788;SDS011;10054;59.332;18.244;2022-11-23T10:50:28;4.90;;;2.33;;
19788;SDS011;10054;59.332;18.244;2022-11-23T10:55:53;2.80;;;2.27;;
19788;SDS011;10054;59.332;18.244;2022-11-23T10:58:29;3.33;;;2.07;;
19788;SDS011;10054;59.332;18.244;2022-11-23T11:01:04;4.37;;;2.50;;
19788;SDS011;10054;59.332;18.244;2022-11-23T11:03:34;3.67;;;2.17;;
19788;SDS011;10054;59.332;18.244;2022-11-23T11:06:03;3.03;;;2.30;;
19788;SDS011;10054;59.332;18.244;2022-11-23T11:08:35;2.63;;;2.30;;
19788;SDS011;10054;59.332;18.244;2022-11-23T11:11:25;3.57;;;2.43;;
19788;SDS011;10054;59.332;18.244;2022-11-23T11:16:47;2.43;;;2.23;;
19788;SDS011;10054;59.332;18.244;2022-11-23T11:22:02;3.10;;;2.40;;
19788;SDS011;10054;59.332;18.244;2022-11-23T11:27:20;7.30;;;2.63;;
19788;SDS011;10054;59.332;18.244;2022-11-23T11:29:50;2.50;;;2.30;;
19788;SDS011;10054;59.332;18.244;2022-11-23T11:37:42;3.23;;;2.43;;
19788;SDS011;10054;59.332;18.244;2022-11-23T11:42:53;2.73;;;2.50;;
19788;SDS011;10054;59.332;18.244;2022-11-23T11:53:21;2.90;;;2.30;;
19788;SDS011;10054;59.332;18.244;2022-11-23T11:55:54;5.10;;;2.20;;
19788;SDS011;10054;59.332;18.244;2022-11-23T11:58:24;3.13;;;2.23;;
19788;SDS011;10054;59.332;18.244;2022-11-23T12:00:58;2.10;;;1.90;;
19788;SDS011;10054;59.332;18.244;2022-11-23T12:03:40;2.57;;;1.90;;
19788;SDS011;10054;59.332;18.244;2022-11-23T12:06:22;4.93;;;2.00;;
19788;SDS011;10054;59.332;18.244;2022-11-23T12:08:58;2.00;;;1.70;;
19788;SDS011;10054;59.332;18.244;2022-11-23T12:11:29;2.03;;;1.83;;
19788;SDS011;10054;59.332;18.244;2022-11-23T12:14:00;1.53;;;1.43;;
19788;SDS011;10054;59.332;18.244;2022-11-23T12:19:35;1.97;;;1.50;;
19788;SDS011;10054;59.332;18.244;2022-11-23T12:22:20;2.10;;;1.60;;
19788;SDS011;10054;59.332;18.244;2022-11-23T12:30:48;1.13;;;1.13;;
19788;SDS011;10054;59.332;18.244;2022-11-23T12:42:05;1.20;;;1.20;;
19788;SDS011;10054;59.332;18.244;2022-11-23T12:47:40;1.43;;;1.10;;
19788;SDS011;10054;59.332;18.244;2022-11-23T12:50:29;4.27;;;1.20;;
19788;SDS011;10054;59.332;18.244;2022-11-23T12:58:51;1.27;;;1.10;;
19788;SDS011;10054;59.332;18.244;2022-11-23T13:01:26;1.27;;;1.10;;
19788;SDS011;10054;59.332;18.244;2022-11-23T13:04:17;1.93;;;1.27;;
19788;SDS011;10054;59.332;18.244;2022-11-23T13:18:03;2.63;;;1.10;;
19788;SDS011;10054;59.332;18.244;2022-11-23T13:20:57;1.30;;;1.20;;
19788;SDS011;10054;59.332;18.244;2022-11-23T13:23:37;1.40;;;1.30;;
19788;SDS011;10054;59.332;18.244;2022-11-23T13:26:21;1.20;;;1.10;;
19788;SDS011;10054;59.332;18.244;2022-11-23T13:28:49;2.10;;;1.10;;
19788;SDS011;10054;59.332;18.244;2022-11-23T13:31:20;2.63;;;1.10;;
19788;SDS011;10054;59.332;18.244;2022-11-23T13:33:56;1.63;;;1.20;;
19788;SDS011;10054;59.332;18.244;2022-11-23T13:39:00;1.03;;;1.00;;
19788;SDS011;10054;59.332;18.244;2022-11-23T13:42:15;2.10;;;1.20;;
19788;SDS011;10054;59.332;18.244;2022-11-23T13:44:15;2.30;;;1.13;;
19788;SDS011;10054;59.332;18.244;2022-11-23T13:47:00;0.80;;;0.80;;
19788;SDS011;10054;59.332;18.244;2022-11-23T13:49:36;1.87;;;1.10;;
19788;SDS011;10054;59.332;18.244;2022-11-23T13:52:27;1.00;;;0.80;;
19788;SDS011;10054;59.332;18.244;2022-11-23T13:54:53;1.10;;;1.00;;
19788;SDS011;10054;59.332;18.244;2022-11-23T13:57:45;1.20;;;1.10;;
19788;SDS011;10054;59.332;18.244;2022-11-23T14:11:51;1.80;;;1.07;;
19788;SDS011;10054;59.332;18.244;2022-11-23T14:14:21;0.80;;;0.80;;
19788;SDS011;10054;59.332;18.244;2022-11-23T14:16:55;1.10;;;0.90;;
19788;SDS011;10054;59.332;18.244;2022-11-23T14:43:16;1.10;;;1.10;;
19788;SDS011;10054;59.332;18.244;2022-11-23T14:45:46;1.83;;;1.73;;
19788;SDS011;10054;59.332;18.244;2022-11-23T14:48:21;1.30;;;1.20;;
19788;SDS011;10054;59.332;18.244;2022-11-23T14:51:05;2.20;;;1.30;;
19788;SDS011;10054;59.332;18.244;2022-11-23T14:53:50;2.23;;;1.30;;
19788;SDS011;10054;59.332;18.244;2022-11-23T14:56:33;1.20;;;1.20;;
19788;SDS011;10054;59.332;18.244;2022-11-23T14:59:09;2.07;;;1.30;;
19788;SDS011;10054;59.332;18.244;2022-11-23T15:01:50;2.40;;;1.40;;
19788;SDS011;10054;59.332;18.244;2022-11-23T15:04:27;1.20;;;1.20;;
19788;SDS011;10054;59.332;18.244;2022-11-23T15:07:10;1.37;;;1.10;;
19788;SDS011;10054;59.332;18.244;2022-11-23T15:09:53;0.90;;;0.90;;
19788;SDS011;10054;59.332;18.244;2022-11-23T15:12:21;1.47;;;1.17;;
19788;SDS011;10054;59.332;18.244;2022-11-23T15:14:51;2.47;;;1.50;;
19788;SDS011;10054;59.332;18.244;2022-11-23T15:17:23;1.20;;;1.10;;
19788;SDS011;10054;59.332;18.244;2022-11-23T15:19:53;1.10;;;1.07;;
19788;SDS011;10054;59.332;18.244;2022-11-23T15:22:26;0.93;;;0.93;;
19788;SDS011;10054;59.332;18.244;2022-11-23T15:25:06;1.10;;;0.97;;
19788;SDS011;10054;59.332;18.244;2022-11-23T15:27:37;2.50;;;1.10;;
19788;SDS011;10054;59.332;18.244;2022-11-23T15:30:13;1.23;;;0.90;;
19788;SDS011;10054;59.332;18.244;2022-11-23T15:33:08;1.57;;;1.13;;
19788;SDS011;10054;59.332;18.244;2022-11-23T15:35:17;1.40;;;1.20;;
19788;SDS011;10054;59.332;18.244;2022-11-23T15:37:47;1.30;;;1.10;;
19788;SDS011;10054;59.332;18.244;2022-11-23T15:40:17;1.20;;;1.00;;
19788;SDS011;10054;59.332;18.244;2022-11-23T15:42:47;1.87;;;1.00;;
19788;SDS011;10054;59.332;18.244;2022-11-23T15:45:33;0.90;;;0.90;;
19788;SDS011;10054;59.332;18.244;2022-11-23T15:48:03;1.40;;;1.30;;
19788;SDS011;10054;59.332;18.244;2022-11-23T15:50:33;1.07;;;0.97;;
19788;SDS011;10054;59.332;18.244;2022-11-23T15:53:05;1.00;;;1.00;;
19788;SDS011;10054;59.332;18.244;2022-11-23T15:55:35;2.27;;;0.83;;
19788;SDS011;10054;59.332;18.244;2022-11-23T15:58:04;1.10;;;1.00;;
19788;SDS011;10054;59.332;18.244;2022-11-23T16:00:34;0.83;;;0.83;;
19788;SDS011;10054;59.332;18.244;2022-11-23T16:08:41;0.90;;;0.90;;
19788;SDS011;10054;59.332;18.244;2022-11-23T16:11:27;0.70;;;0.70;;
19788;SDS011;10054;59.332;18.244;2022-11-23T16:14:17;1.13;;;1.10;;
19788;SDS011;10054;59.332;18.244;2022-11-23T16:16:41;1.90;;;1.03;;
19788;SDS011;10054;59.332;18.244;2022-11-23T16:19:20;1.20;;;1.00;;
19788;SDS011;10054;59.332;18.244;2022-11-23T16:21:58;1.00;;;0.90;;
19788;SDS011;10054;59.332;18.244;2022-11-23T16:24:28;0.87;;;0.87;;
19788;SDS011;10054;59.332;18.244;2022-11-23T16:26:59;1.27;;;1.07;;
19788;SDS011;10054;59.332;18.244;2022-11-23T16:29:30;15.33;;;13.87;;
19788;SDS011;10054;59.332;18.244;2022-11-23T16:32:00;42.53;;;32.20;;
19788;SDS011;10054;59.332;18.244;2022-11-23T16:34:32;49.20;;;35.50;;
19788;SDS011;10054;59.332;18.244;2022-11-23T16:37:01;3.30;;;3.00;;
19788;SDS011;10054;59.332;18.244;2022-11-23T16:39:29;1.70;;;1.60;;
19788;SDS011;10054;59.332;18.244;2022-11-23T16:41:58;1.10;;;1.10;;
19788;SDS011;10054;59.332;18.244;2022-11-23T16:44:28;1.30;;;1.30;;
19788;SDS011;10054;59.332;18.244;2022-11-23T16:47:09;2.07;;;1.00;;
19788;SDS011;10054;59.332;18.244;2022-11-23T16:49:28;1.10;;;1.00;;
19788;SDS011;10054;59.332;18.244;2022-11-23T16:51:56;1.87;;;1.37;;
19788;SDS011;10054;59.332;18.244;2022-11-23T16:54:25;1.30;;;1.20;;
19788;SDS011;10054;59.332;18.244;2022-11-23T16:56:54;1.87;;;1.30;;
19788;SDS011;10054;59.332;18.244;2022-11-23T16:59:22;3.60;;;2.67;;
19788;SDS011;10054;59.332;18.244;2022-11-23T17:01:51;3.20;;;1.33;;
19788;SDS011;10054;59.332;18.244;2022-11-23T17:04:20;2.23;;;1.60;;
19788;SDS011;10054;59.332;18.244;2022-11-23T17:06:48;1.40;;;1.20;;
19788;SDS011;10054;59.332;18.244;2022-11-23T17:09:18;0.90;;;0.90;;
19788;SDS011;10054;59.332;18.244;2022-11-23T17:11:47;1.20;;;1.10;;
19788;SDS011;10054;59.332;18.244;2022-11-23T17:14:16;2.83;;;1.50;;